Time;durP1;ratioP1;P1;durP2;ratioP2;P2;SDS_P1;SDS_P2;PMS_P1;PMS_P2;Temp;Humidity;BMP_temperature;BMP_pressure;BME280_temperature;BME280_humidity;BME280_pressure;Samples;Min_cycle;Max_cycle;Signal;HPM_P1;HPM_P2
2024/01/31 00:01:05;;;;;;;15.07;13.17;;;11.10;99.90;;;;;;5010623;28;20708;-69
2024/01/31 00:03:31;;;;;;;17.40;13.50;;;11.10;99.90;;;;;;5016096;28;20689;-69
2024/01/31 00:05:56;;;;;;;17.50;14.30;;;11.10;99.90;;;;;;5017197;28;20246;-69
2024/01/31 00:08:22;;;;;;;18.60;13.73;;;11.10;99.90;;;;;;5011402;28;20196;-70
2024/01/31 00:10:48;;;;;;;15.30;13.03;;;11.10;99.90;;;;;;5009377;28;20185;-70
2024/01/31 00:13:13;;;;;;;21.93;13.37;;;11.10;99.90;;;;;;5010506;28;20219;-69
2024/01/31 00:15:39;;;;;;;15.67;12.67;;;11.10;99.90;;;;;;5011705;28;20177;-69
2024/01/31 00:18:05;;;;;;;18.57;13.47;;;11.10;99.90;;;;;;5014415;28;20607;-69
2024/01/31 00:20:30;;;;;;;14.60;12.03;;;11.10;99.90;;;;;;5021365;28;20207;-69
2024/01/31 00:22:56;;;;;;;16.20;12.80;;;11.10;99.90;;;;;;5025573;28;20180;-69
2024/01/31 00:25:21;;;;;;;18.90;12.70;;;11.10;99.90;;;;;;5018081;28;20200;-70
2024/01/31 00:27:47;;;;;;;14.87;12.83;;;11.10;99.90;;;;;;5015764;28;20610;-70
2024/01/31 00:30:13;;;;;;;17.73;13.07;;;11.10;99.90;;;;;;5017178;28;20781;-69
2024/01/31 00:32:39;;;;;;;14.17;11.67;;;11.20;99.90;;;;;;5009560;28;20189;-69
2024/01/31 00:35:05;;;;;;;15.83;12.20;;;11.20;99.90;;;;;;5009571;28;20595;-69
2024/01/31 00:37:30;;;;;;;12.70;11.37;;;11.20;99.90;;;;;;5015113;28;20233;-69
2024/01/31 00:39:56;;;;;;;13.70;11.63;;;11.20;99.90;;;;;;5011295;28;20871;-69
2024/01/31 00:42:21;;;;;;;16.53;12.63;;;11.20;99.90;;;;;;5013627;28;20553;-69
2024/01/31 00:44:47;;;;;;;15.23;11.03;;;11.10;99.90;;;;;;5014131;28;20196;-69
2024/01/31 00:47:13;;;;;;;17.13;11.90;;;11.10;99.90;;;;;;5013938;28;20647;-70
2024/01/31 00:49:39;;;;;;;14.03;11.00;;;11.10;99.90;;;;;;5013071;28;20193;-70
2024/01/31 00:52:05;;;;;;;14.20;11.90;;;11.20;99.90;;;;;;5009045;28;20515;-69
2024/01/31 00:54:31;;;;;;;18.30;10.87;;;11.20;99.90;;;;;;5012782;28;21028;-71
2024/01/31 00:56:56;;;;;;;12.30;10.43;;;11.30;99.90;;;;;;5013220;28;20419;-69
2024/01/31 00:59:22;;;;;;;12.80;10.73;;;11.30;99.90;;;;;;5013563;28;20192;-69
2024/01/31 01:01:47;;;;;;;14.23;11.23;;;11.20;99.90;;;;;;5013754;28;20239;-69
2024/01/31 01:04:13;;;;;;;12.87;10.80;;;11.20;99.90;;;;;;5010776;28;20681;-69
2024/01/31 01:06:42;;;;;;;15.17;10.90;;;11.20;99.90;;;;;;5017527;28;20363;-69
2024/01/31 01:09:08;;;;;;;15.10;10.57;;;11.20;99.90;;;;;;5008742;28;20185;-69
2024/01/31 01:11:34;;;;;;;16.00;11.47;;;11.20;99.90;;;;;;5014615;28;20521;-69
2024/01/31 01:13:59;;;;;;;14.30;11.00;;;11.30;99.90;;;;;;5009726;28;20464;-69
2024/01/31 01:16:25;;;;;;;15.63;11.50;;;11.30;99.90;;;;;;5007783;28;20527;-69
2024/01/31 01:18:50;;;;;;;12.73;10.40;;;11.30;99.90;;;;;;5013777;28;20270;-69
2024/01/31 01:21:16;;;;;;;16.90;12.23;;;11.30;99.90;;;;;;5006099;28;20184;-69
2024/01/31 01:23:41;;;;;;;15.93;12.30;;;11.30;99.90;;;;;;5011046;28;20279;-69
2024/01/31 01:26:07;;;;;;;18.50;11.63;;;11.20;99.90;;;;;;5015212;28;20661;-69
2024/01/31 01:28:32;;;;;;;16.90;11.63;;;11.20;99.90;;;;;;5017501;28;21051;-69
2024/01/31 01:30:58;;;;;;;12.07;9.70;;;11.20;99.90;;;;;;5011218;28;20267;-69
2024/01/31 01:33:23;;;;;;;13.93;11.70;;;11.30;99.90;;;;;;5016426;28;20777;-70
2024/01/31 01:35:49;;;;;;;13.60;10.87;;;11.30;99.90;;;;;;5010376;28;20223;-69
2024/01/31 01:38:14;;;;;;;14.63;12.03;;;11.30;99.90;;;;;;5014622;28;20203;-69
2024/01/31 01:40:46;;;;;;;15.53;10.90;;;11.40;99.90;;;;;;5013622;28;20609;-69
2024/01/31 01:43:19;;;;;;;21.27;11.10;;;11.40;99.90;;;;;;5010522;28;20187;-69
2024/01/31 01:45:44;;;;;;;15.10;10.00;;;11.30;99.90;;;;;;5012520;28;20458;-69
2024/01/31 01:48:17;;;;;;;13.33;11.93;;;11.40;99.90;;;;;;5013245;28;20440;-69
2024/01/31 01:50:44;;;;;;;13.93;10.93;;;11.30;99.90;;;;;;5008509;28;20436;-69
2024/01/31 01:53:10;;;;;;;16.63;12.53;;;11.30;99.90;;;;;;5013788;28;20910;-69
2024/01/31 01:55:37;;;;;;;14.33;11.00;;;11.30;99.90;;;;;;5014754;28;20927;-69
2024/01/31 01:58:03;;;;;;;13.00;10.70;;;11.30;99.90;;;;;;5015741;28;21054;-69
2024/01/31 02:00:32;;;;;;;14.00;11.17;;;11.40;99.90;;;;;;5015299;28;20443;-70
2024/01/31 02:02:58;;;;;;;20.00;12.07;;;11.40;99.90;;;;;;5010094;28;20439;-69
2024/01/31 02:05:24;;;;;;;14.37;11.33;;;11.40;99.90;;;;;;5006146;28;20600;-69
2024/01/31 02:07:49;;;;;;;12.77;10.07;;;11.40;99.90;;;;;;5011453;28;20952;-69
2024/01/31 02:10:15;;;;;;;12.70;10.53;;;11.30;99.90;;;;;;5010464;28;20739;-69
2024/01/31 02:12:41;;;;;;;13.37;9.80;;;11.30;99.90;;;;;;5009438;28;20204;-69
2024/01/31 02:15:07;;;;;;;16.00;10.90;;;11.30;99.90;;;;;;5010157;28;20302;-70
2024/01/31 02:17:33;;;;;;;12.67;10.90;;;11.30;99.90;;;;;;5010682;28;20216;-70
2024/01/31 02:19:59;;;;;;;16.27;10.57;;;11.40;99.90;;;;;;5010010;28;20875;-70
2024/01/31 02:22:25;;;;;;;11.03;9.30;;;11.30;99.90;;;;;;5019829;28;20553;-69
2024/01/31 02:24:50;;;;;;;13.50;10.30;;;11.30;99.90;;;;;;5014042;28;20455;-70
2024/01/31 02:27:16;;;;;;;11.63;10.43;;;11.30;99.90;;;;;;5006638;28;20252;-69
2024/01/31 02:29:41;;;;;;;14.10;11.10;;;11.30;99.90;;;;;;5011543;28;20189;-69
2024/01/31 02:32:07;;;;;;;13.30;11.13;;;11.30;99.90;;;;;;5014749;28;20199;-69
2024/01/31 02:34:33;;;;;;;13.37;10.80;;;11.20;99.90;;;;;;5012702;28;20254;-69
2024/01/31 02:36:58;;;;;;;13.65;10.85;;;11.20;99.90;;;;;;5011250;28;20220;-70
2024/01/31 02:39:24;;;;;;;15.47;12.03;;;11.20;99.90;;;;;;5011251;28;21257;-69
2024/01/31 02:41:52;;;;;;;12.70;9.63;;;11.20;99.90;;;;;;5008917;28;20239;-69
2024/01/31 02:44:18;;;;;;;12.40;10.20;;;11.20;99.90;;;;;;5014741;28;20977;-70
2024/01/31 02:46:44;;;;;;;11.73;10.00;;;11.30;99.90;;;;;;5014959;28;20440;-70
2024/01/31 02:49:09;;;;;;;15.60;11.77;;;11.30;99.90;;;;;;5013370;28;20482;-69
2024/01/31 02:51:35;;;;;;;11.83;10.07;;;11.20;99.90;;;;;;5014334;28;20189;-69
2024/01/31 02:54:01;;;;;;;13.83;11.27;;;11.20;99.90;;;;;;5010974;28;20205;-69
2024/01/31 02:56:26;;;;;;;14.33;10.57;;;11.20;99.90;;;;;;5006463;28;20239;-69
2024/01/31 02:58:52;;;;;;;14.90;11.07;;;11.20;99.90;;;;;;5007226;28;20278;-69
2024/01/31 03:01:18;;;;;;;12.80;10.10;;;11.20;99.90;;;;;;5008309;28;20215;-69
2024/01/31 03:03:43;;;;;;;21.73;10.77;;;11.20;99.90;;;;;;5007210;28;20655;-69
2024/01/31 03:06:09;;;;;;;13.93;10.27;;;11.30;99.90;;;;;;5012938;28;20561;-69
2024/01/31 03:08:34;;;;;;;14.13;10.87;;;11.20;99.90;;;;;;5007811;28;20193;-69
2024/01/31 03:11:00;;;;;;;10.93;9.70;;;11.30;99.90;;;;;;5013659;28;20196;-69
2024/01/31 03:13:25;;;;;;;13.53;9.70;;;11.30;99.90;;;;;;5006998;28;20219;-69
2024/01/31 03:15:51;;;;;;;15.73;10.43;;;11.20;99.90;;;;;;5015348;28;20196;-70
2024/01/31 03:18:16;;;;;;;12.77;10.20;;;11.20;99.90;;;;;;5004729;28;20216;-70
2024/01/31 03:20:42;;;;;;;12.90;10.33;;;11.20;99.90;;;;;;5007297;28;20549;-69
2024/01/31 03:23:08;;;;;;;16.23;11.07;;;11.20;99.90;;;;;;5008409;28;20242;-70
2024/01/31 03:25:34;;;;;;;11.20;10.07;;;11.30;99.90;;;;;;5010288;28;20193;-70
2024/01/31 03:28:00;;;;;;;13.30;10.43;;;11.20;99.90;;;;;;5002348;28;20808;-69
2024/01/31 03:30:25;;;;;;;12.97;10.47;;;11.30;99.90;;;;;;5004820;28;20308;-70
2024/01/31 03:32:51;;;;;;;15.10;10.00;;;11.30;99.90;;;;;;5010135;28;20667;-70
2024/01/31 03:35:16;;;;;;;13.53;10.27;;;11.30;99.90;;;;;;5004676;28;20271;-69
2024/01/31 03:37:43;;;;;;;13.60;11.77;;;11.30;99.90;;;;;;5011350;28;20216;-69
2024/01/31 03:40:09;;;;;;;14.37;9.27;;;11.30;99.90;;;;;;5004916;28;20177;-69
2024/01/31 03:42:35;;;;;;;13.53;9.90;;;11.20;99.90;;;;;;5010510;28;20435;-70
2024/01/31 03:45:03;;;;;;;13.30;9.53;;;11.20;99.90;;;;;;5010484;28;20466;-69
2024/01/31 03:47:29;;;;;;;14.40;10.23;;;11.20;99.90;;;;;;5008779;28;20178;-69
2024/01/31 03:49:55;;;;;;;12.80;10.30;;;11.20;99.90;;;;;;5018356;28;20436;-69
2024/01/31 03:52:20;;;;;;;13.73;10.10;;;11.20;99.90;;;;;;5020430;28;20181;-69
2024/01/31 03:54:46;;;;;;;12.27;10.33;;;11.20;99.90;;;;;;5020244;28;20741;-69
2024/01/31 03:57:11;;;;;;;20.87;11.07;;;11.20;99.90;;;;;;5010442;28;20189;-69
2024/01/31 03:59:37;;;;;;;12.90;10.03;;;11.20;99.90;;;;;;5012780;28;20196;-69
2024/01/31 04:02:03;;;;;;;11.33;10.10;;;11.30;99.90;;;;;;5006494;28;20223;-68
2024/01/31 04:04:28;;;;;;;13.20;10.20;;;11.30;99.90;;;;;;5013545;28;20269;-69
2024/01/31 04:06:54;;;;;;;12.77;9.97;;;11.30;99.90;;;;;;5013142;28;20192;-69
2024/01/31 04:09:19;;;;;;;12.87;10.57;;;11.30;99.90;;;;;;5012332;28;20188;-69
2024/01/31 04:11:45;;;;;;;14.00;11.30;;;11.30;99.90;;;;;;5011881;28;20334;-69
2024/01/31 04:14:10;;;;;;;13.17;9.60;;;11.30;99.90;;;;;;5016389;28;20220;-69
2024/01/31 04:16:36;;;;;;;17.80;10.77;;;11.30;99.90;;;;;;5012850;28;20316;-69
2024/01/31 04:19:02;;;;;;;12.27;10.43;;;11.20;99.90;;;;;;5009284;28;20219;-69
2024/01/31 04:21:27;;;;;;;13.03;11.03;;;11.20;99.90;;;;;;5011557;28;20185;-69
2024/01/31 04:23:53;;;;;;;11.70;9.87;;;11.20;99.90;;;;;;5011746;28;20216;-69
2024/01/31 04:26:19;;;;;;;13.33;10.60;;;11.10;99.90;;;;;;5016604;28;20185;-70
2024/01/31 04:28:45;;;;;;;14.80;10.50;;;11.20;99.90;;;;;;5014338;28;20203;-69
2024/01/31 04:31:16;;;;;;;13.93;10.53;;;11.20;99.90;;;;;;5008982;28;20188;-69
2024/01/31 04:33:42;;;;;;;13.20;10.40;;;11.20;99.90;;;;;;5013325;28;20470;-68
2024/01/31 04:36:08;;;;;;;12.03;10.60;;;11.10;99.90;;;;;;5012240;28;20557;-69
2024/01/31 04:38:34;;;;;;;17.30;11.27;;;11.10;99.90;;;;;;5012156;28;20801;-68
2024/01/31 04:41:01;;;;;;;15.73;12.37;;;11.10;99.90;;;;;;5013286;28;20436;-68
2024/01/31 04:43:27;;;;;;;13.37;10.83;;;11.00;99.90;;;;;;5014360;28;20464;-68
2024/01/31 04:45:53;;;;;;;15.53;11.67;;;10.90;99.90;;;;;;5014374;28;20426;-68
2024/01/31 04:48:18;;;;;;;13.13;11.30;;;10.90;99.90;;;;;;5014274;28;20184;-68
2024/01/31 04:50:44;;;;;;;17.57;12.40;;;11.00;99.90;;;;;;5012364;28;20761;-68
2024/01/31 04:53:10;;;;;;;15.97;11.80;;;11.00;99.90;;;;;;5014161;28;20181;-68
2024/01/31 04:55:36;;;;;;;12.27;10.97;;;11.00;99.90;;;;;;5014644;28;20195;-68
2024/01/31 04:58:02;;;;;;;14.30;10.93;;;10.90;99.90;;;;;;5012107;28;20197;-68
2024/01/31 05:00:28;;;;;;;15.33;12.20;;;10.90;99.90;;;;;;5010029;28;20435;-68
2024/01/31 05:02:53;;;;;;;13.70;10.77;;;10.80;99.90;;;;;;5005167;28;20185;-68
2024/01/31 05:05:19;;;;;;;17.60;12.77;;;10.90;99.90;;;;;;5016511;28;20310;-68
2024/01/31 05:07:45;;;;;;;16.57;12.03;;;10.90;99.90;;;;;;5013679;28;20188;-68
2024/01/31 05:10:11;;;;;;;13.43;12.03;;;10.90;99.90;;;;;;5013181;28;20443;-69
2024/01/31 05:12:37;;;;;;;17.47;12.00;;;10.90;99.90;;;;;;5011463;28;20442;-70
2024/01/31 05:15:04;;;;;;;18.17;13.20;;;10.90;99.90;;;;;;5016089;28;20192;-68
2024/01/31 05:17:30;;;;;;;16.47;14.03;;;10.90;99.90;;;;;;5008816;28;20475;-68
2024/01/31 05:19:55;;;;;;;20.30;14.40;;;10.90;99.90;;;;;;5012138;28;20781;-68
2024/01/31 05:22:21;;;;;;;18.77;14.00;;;11.00;99.90;;;;;;5011884;28;20211;-68
2024/01/31 05:24:46;;;;;;;16.53;13.70;;;11.00;99.90;;;;;;5010242;28;20234;-68
2024/01/31 05:27:12;;;;;;;16.37;13.83;;;11.00;99.90;;;;;;5011711;28;20181;-68
2024/01/31 05:29:37;;;;;;;20.17;14.57;;;11.00;99.90;;;;;;5011102;28;20212;-68
2024/01/31 05:32:03;;;;;;;17.93;14.40;;;11.00;99.90;;;;;;5008711;28;20185;-69
2024/01/31 05:34:29;;;;;;;18.37;12.07;;;11.00;99.90;;;;;;5013443;28;20247;-69
2024/01/31 05:36:55;;;;;;;17.57;12.97;;;11.00;99.90;;;;;;5008610;28;20479;-69
2024/01/31 05:39:20;;;;;;;15.87;14.20;;;11.00;99.90;;;;;;5016119;28;20207;-68
2024/01/31 05:41:46;;;;;;;14.53;12.60;;;11.00;99.90;;;;;;5011623;28;20227;-69
2024/01/31 05:44:12;;;;;;;13.30;11.90;;;11.00;99.90;;;;;;5017753;28;20910;-68
2024/01/31 05:46:37;;;;;;;16.17;13.50;;;11.00;99.90;;;;;;5008384;28;20192;-68
2024/01/31 05:49:03;;;;;;;17.90;13.50;;;10.90;99.90;;;;;;5008941;28;20193;-68
2024/01/31 05:51:29;;;;;;;17.00;12.77;;;11.00;99.90;;;;;;5012669;28;20556;-68
2024/01/31 05:53:55;;;;;;;15.20;12.90;;;11.00;99.90;;;;;;5009606;28;20259;-69
2024/01/31 05:56:21;;;;;;;12.30;11.00;;;11.00;99.90;;;;;;5013338;28;20428;-68
2024/01/31 05:58:47;;;;;;;15.77;11.63;;;11.00;99.90;;;;;;5012240;28;20239;-69
2024/01/31 06:01:12;;;;;;;16.13;12.33;;;11.00;99.90;;;;;;5018058;28;20852;-68
2024/01/31 06:03:38;;;;;;;15.40;11.53;;;10.90;99.90;;;;;;5016848;28;20210;-68
2024/01/31 06:06:04;;;;;;;14.87;10.77;;;11.00;99.90;;;;;;5013762;28;20192;-67
2024/01/31 06:08:30;;;;;;;13.20;11.30;;;10.90;99.90;;;;;;5012220;28;20268;-68
2024/01/31 06:11:03;;;;;;;9.97;8.73;;;10.90;99.90;;;;;;5015858;28;21053;-69
2024/01/31 06:13:29;;;;;;;11.37;9.40;;;10.90;99.90;;;;;;5012271;28;20208;-69
2024/01/31 06:15:54;;;;;;;11.03;9.27;;;10.90;99.90;;;;;;5007218;28;20432;-68
2024/01/31 06:18:22;;;;;;;17.10;9.90;;;10.90;99.90;;;;;;5013697;28;20482;-68
2024/01/31 06:20:48;;;;;;;12.30;8.93;;;10.90;99.90;;;;;;5006881;28;20184;-67
2024/01/31 06:23:14;;;;;;;11.20;9.07;;;10.90;99.90;;;;;;5012506;28;20432;-68
2024/01/31 06:25:39;;;;;;;19.33;11.23;;;10.90;99.90;;;;;;5009714;28;20543;-68
2024/01/31 06:28:08;;;;;;;12.43;9.10;;;10.90;99.90;;;;;;5014225;28;20246;-69
2024/01/31 06:30:41;;;;;;;13.50;10.20;;;10.90;99.90;;;;;;5014007;28;21006;-68
2024/01/31 06:33:14;;;;;;;12.30;10.20;;;10.90;99.90;;;;;;5014135;28;20427;-68
2024/01/31 06:35:41;;;;;;;13.77;11.20;;;10.80;99.90;;;;;;5012076;28;20445;-68
2024/01/31 06:38:07;;;;;;;11.93;9.73;;;10.90;99.90;;;;;;5014403;28;20472;-68
2024/01/31 06:40:33;;;;;;;13.33;10.37;;;10.90;99.90;;;;;;5011308;28;20436;-68
2024/01/31 06:42:58;;;;;;;14.90;10.20;;;10.90;99.90;;;;;;5011697;28;20185;-68
2024/01/31 06:45:24;;;;;;;13.40;10.77;;;10.90;99.90;;;;;;5010714;28;20203;-69
2024/01/31 06:47:51;;;;;;;12.83;10.47;;;10.90;99.90;;;;;;5011262;28;20574;-68
2024/01/31 06:50:16;;;;;;;14.13;10.90;;;10.90;99.90;;;;;;5013999;28;20436;-68
2024/01/31 06:52:42;;;;;;;13.47;11.23;;;10.90;99.90;;;;;;5009786;28;20792;-69
2024/01/31 06:55:08;;;;;;;12.87;10.47;;;10.90;99.90;;;;;;5011820;28;20212;-68
2024/01/31 06:57:34;;;;;;;12.60;10.80;;;10.90;99.90;;;;;;5007823;28;20224;-69
2024/01/31 07:00:01;;;;;;;14.30;11.00;;;10.90;99.90;;;;;;5013876;28;20419;-68
2024/01/31 07:02:26;;;;;;;12.47;10.80;;;10.90;99.90;;;;;;5014158;28;20525;-68
2024/01/31 07:04:52;;;;;;;14.60;12.20;;;10.90;99.90;;;;;;5013215;28;20665;-68
2024/01/31 07:07:17;;;;;;;16.83;12.87;;;10.90;99.90;;;;;;5016831;28;20259;-69
2024/01/31 07:09:43;;;;;;;14.23;12.17;;;10.90;99.90;;;;;;5008061;28;20187;-69
2024/01/31 07:12:08;;;;;;;19.23;12.67;;;10.90;99.90;;;;;;5020206;28;20196;-69
2024/01/31 07:14:34;;;;;;;17.07;12.63;;;10.90;99.90;;;;;;5023708;28;20235;-69
2024/01/31 07:16:59;;;;;;;15.63;12.63;;;10.80;99.90;;;;;;5023041;28;20189;-68
2024/01/31 07:19:25;;;;;;;17.33;13.27;;;10.90;99.90;;;;;;5018560;28;20209;-68
2024/01/31 07:21:50;;;;;;;17.50;15.00;;;10.90;99.90;;;;;;5017543;28;20791;-69
2024/01/31 07:24:17;;;;;;;27.80;13.80;;;10.80;99.90;;;;;;5014020;28;20199;-69
2024/01/31 07:26:42;;;;;;;21.27;13.93;;;10.80;99.90;;;;;;5020872;28;20255;-69
2024/01/31 07:29:08;;;;;;;19.60;13.27;;;10.80;99.90;;;;;;5024043;28;20438;-69
2024/01/31 07:31:34;;;;;;;15.40;12.80;;;10.80;99.90;;;;;;5019570;28;20185;-69
2024/01/31 07:34:00;;;;;;;15.47;13.10;;;10.80;99.90;;;;;;5015166;28;20209;-68
2024/01/31 07:36:25;;;;;;;18.27;13.50;;;10.80;99.90;;;;;;5019306;28;20458;-68
2024/01/31 07:38:51;;;;;;;25.80;14.20;;;10.80;99.90;;;;;;5020588;28;20204;-68
2024/01/31 07:41:16;;;;;;;17.40;11.80;;;10.80;99.90;;;;;;5009947;28;20238;-68
2024/01/31 07:43:42;;;;;;;16.17;11.17;;;10.90;99.90;;;;;;5016089;28;20304;-68
2024/01/31 07:46:08;;;;;;;30.10;13.60;;;10.90;99.90;;;;;;5006900;28;20276;-67
2024/01/31 07:48:34;;;;;;;17.77;12.93;;;10.90;99.90;;;;;;5017656;28;20924;-69
2024/01/31 07:51:03;;;;;;;17.17;12.30;;;10.90;99.90;;;;;;5012696;28;20170;-69
2024/01/31 07:53:29;;;;;;;15.40;11.97;;;10.90;99.90;;;;;;5014278;28;20204;-68
2024/01/31 07:55:55;;;;;;;15.47;12.10;;;10.90;99.90;;;;;;5011541;28;20446;-68
2024/01/31 07:58:20;;;;;;;12.83;11.33;;;10.90;99.90;;;;;;5017470;28;20258;-68
2024/01/31 08:00:46;;;;;;;20.43;12.63;;;10.90;99.90;;;;;;5015056;28;20939;-69
2024/01/31 08:03:11;;;;;;;14.77;11.80;;;11.00;99.90;;;;;;5012094;28;20708;-68
2024/01/31 08:05:37;;;;;;;15.47;12.57;;;11.00;99.90;;;;;;5013286;28;20610;-68
2024/01/31 08:08:03;;;;;;;14.73;11.17;;;11.00;99.90;;;;;;5009855;28;20191;-68
2024/01/31 08:10:28;;;;;;;15.30;11.30;;;11.00;99.90;;;;;;5010151;28;20189;-68
2024/01/31 08:12:54;;;;;;;9.73;7.43;;;11.10;99.90;;;;;;5009845;28;20196;-68
2024/01/31 08:15:20;;;;;;;15.10;8.63;;;11.10;99.90;;;;;;5014268;28;20211;-68
2024/01/31 08:17:46;;;;;;;13.30;9.47;;;11.10;99.90;;;;;;5015417;28;20204;-69
2024/01/31 08:20:15;;;;;;;15.23;9.10;;;11.10;99.90;;;;;;5016794;28;21006;-68
2024/01/31 08:22:40;;;;;;;12.23;8.43;;;11.10;99.90;;;;;;5011065;28;20439;-69
2024/01/31 08:25:06;;;;;;;10.47;7.17;;;11.20;99.90;;;;;;5013954;28;20538;-69
2024/01/31 08:27:32;;;;;;;11.33;7.27;;;11.20;99.90;;;;;;5014522;28;20224;-68
2024/01/31 08:29:58;;;;;;;16.40;11.97;;;11.20;99.90;;;;;;5011099;28;20435;-68
2024/01/31 08:32:23;;;;;;;11.87;7.97;;;11.20;99.90;;;;;;5018314;28;20184;-68
2024/01/31 08:34:49;;;;;;;14.23;9.43;;;11.30;99.90;;;;;;5020637;28;20204;-68
2024/01/31 08:37:14;;;;;;;9.70;6.50;;;11.30;99.90;;;;;;5015597;28;20200;-68
2024/01/31 08:39:41;;;;;;;6.17;4.70;;;11.30;99.90;;;;;;5023692;28;20189;-67
2024/01/31 08:42:08;;;;;;;10.70;6.00;;;11.40;99.90;;;;;;5017902;28;20552;-67
2024/01/31 08:44:34;;;;;;;26.40;6.63;;;11.40;99.90;;;;;;5017253;28;20871;-67
2024/01/31 08:46:59;;;;;;;18.20;7.07;;;11.40;99.90;;;;;;5013443;28;21009;-68
2024/01/31 08:49:25;;;;;;;7.80;5.87;;;11.40;99.90;;;;;;5019358;28;20196;-68
2024/01/31 08:51:53;;;;;;;12.10;6.90;;;11.40;99.90;;;;;;5026030;28;20216;-68
2024/01/31 08:54:19;;;;;;;22.93;7.17;;;11.40;99.90;;;;;;5022736;28;20211;-69
2024/01/31 08:56:44;;;;;;;9.67;6.10;;;11.40;99.90;;;;;;5017662;28;20439;-68
2024/01/31 08:59:10;;;;;;;11.67;5.90;;;11.40;99.90;;;;;;5017115;28;20223;-67
2024/01/31 09:01:36;;;;;;;11.20;5.90;;;11.40;99.90;;;;;;5021594;28;20185;-68
2024/01/31 09:04:01;;;;;;;41.60;8.00;;;11.40;99.90;;;;;;5014498;28;20223;-67
2024/01/31 09:06:27;;;;;;;8.07;4.03;;;11.50;99.90;;;;;;5017876;28;20188;-68
2024/01/31 09:08:52;;;;;;;6.70;4.40;;;11.40;99.90;;;;;;5025945;28;20203;-67
2024/01/31 09:11:18;;;;;;;6.10;3.73;;;11.40;99.90;;;;;;5021799;28;20181;-68
2024/01/31 09:13:43;;;;;;;14.90;6.10;;;11.50;99.90;;;;;;5017737;28;20208;-69
2024/01/31 09:16:09;;;;;;;11.63;5.40;;;11.50;99.90;;;;;;5008898;28;20197;-69
2024/01/31 09:18:35;;;;;;;6.93;4.57;;;11.50;99.90;;;;;;5020762;28;20212;-68
2024/01/31 09:21:00;;;;;;;10.70;5.17;;;11.50;99.90;;;;;;5015295;28;20203;-69
2024/01/31 09:23:26;;;;;;;10.70;5.40;;;11.60;99.90;;;;;;5024040;28;20219;-68
2024/01/31 09:25:51;;;;;;;7.90;5.07;;;11.60;99.90;;;;;;5017413;28;20191;-68
2024/01/31 09:28:17;;;;;;;8.10;5.63;;;11.70;99.90;;;;;;5021045;28;20220;-68
2024/01/31 09:30:44;;;;;;;10.87;5.57;;;11.70;99.90;;;;;;5019723;28;20250;-68
2024/01/31 09:33:10;;;;;;;5.47;4.90;;;11.70;99.90;;;;;;5010996;28;20458;-68
2024/01/31 09:35:35;;;;;;;11.00;5.80;;;11.80;99.90;;;;;;5011113;28;20526;-68
2024/01/31 09:38:01;;;;;;;7.90;6.07;;;11.80;99.90;;;;;;5011379;28;20558;-69
2024/01/31 09:40:27;;;;;;;7.10;5.83;;;11.80;99.90;;;;;;5013867;28;20226;-69
2024/01/31 09:42:54;;;;;;;8.30;6.70;;;11.90;99.90;;;;;;5016378;28;20399;-68
2024/01/31 09:45:21;;;;;;;8.00;5.30;;;11.90;99.90;;;;;;5020158;28;20459;-68
2024/01/31 09:47:49;;;;;;;8.90;6.20;;;11.90;99.90;;;;;;5014356;28;20434;-68
2024/01/31 09:50:15;;;;;;;10.90;7.50;;;11.90;99.90;;;;;;5015604;28;20444;-69
2024/01/31 09:52:41;;;;;;;11.37;8.00;;;11.90;99.90;;;;;;5009535;28;20840;-69
2024/01/31 09:55:11;;;;;;;15.10;9.57;;;11.80;99.90;;;;;;5007977;28;20446;-68
2024/01/31 09:57:41;;;;;;;11.93;8.60;;;11.80;99.90;;;;;;5014354;28;20470;-69
2024/01/31 10:00:08;;;;;;;13.70;9.20;;;11.80;99.90;;;;;;5013799;28;20526;-68
2024/01/31 10:02:35;;;;;;;12.63;10.10;;;11.90;99.90;;;;;;5012734;28;20435;-68
2024/01/31 10:05:01;;;;;;;14.83;10.10;;;11.80;99.90;;;;;;5010111;28;20944;-68
2024/01/31 10:07:30;;;;;;;13.77;10.03;;;11.90;99.90;;;;;;5011045;28;20501;-69
2024/01/31 10:09:56;;;;;;;12.80;11.00;;;11.90;99.90;;;;;;5009452;28;20173;-68
2024/01/31 10:12:22;;;;;;;15.03;11.17;;;11.80;99.90;;;;;;5023093;28;20459;-68
2024/01/31 10:14:51;;;;;;;14.90;10.63;;;11.90;99.90;;;;;;5023483;28;20203;-67
2024/01/31 10:17:20;;;;;;;13.60;11.43;;;11.90;99.90;;;;;;5020380;28;20484;-68
2024/01/31 10:19:45;;;;;;;17.53;11.40;;;11.80;99.90;;;;;;5014739;28;20448;-67
2024/01/31 10:22:11;;;;;;;19.10;11.73;;;11.80;99.90;;;;;;5013680;28;20439;-67
2024/01/31 10:24:38;;;;;;;17.20;12.20;;;11.80;99.90;;;;;;5013070;28;20200;-68
2024/01/31 10:27:06;;;;;;;13.67;11.47;;;11.70;99.90;;;;;;5014959;28;20181;-68
2024/01/31 10:29:32;;;;;;;14.53;11.33;;;11.70;99.90;;;;;;5019200;28;20449;-68
2024/01/31 10:31:59;;;;;;;16.60;11.77;;;11.80;99.90;;;;;;5018583;28;20440;-68
2024/01/31 10:34:27;;;;;;;14.80;11.10;;;11.80;99.90;;;;;;5022264;28;20573;-68
2024/01/31 10:36:54;;;;;;;12.93;10.50;;;11.80;99.90;;;;;;5008620;28;20835;-68
2024/01/31 10:39:20;;;;;;;13.10;10.43;;;11.70;99.90;;;;;;5008901;28;20857;-68
2024/01/31 10:41:48;;;;;;;12.80;10.40;;;11.80;99.90;;;;;;5015089;28;20435;-68
2024/01/31 10:44:14;;;;;;;11.50;10.17;;;11.70;99.90;;;;;;5014540;28;20965;-69
2024/01/31 10:46:42;;;;;;;14.93;10.30;;;11.70;99.90;;;;;;5018337;28;20991;-69
2024/01/31 10:49:08;;;;;;;11.70;9.67;;;11.70;99.90;;;;;;5010274;28;20439;-68
2024/01/31 10:51:35;;;;;;;13.13;9.10;;;11.60;99.90;;;;;;5011510;28;20857;-68
2024/01/31 10:54:03;;;;;;;11.43;8.63;;;11.60;99.90;;;;;;5014333;28;20462;-68
2024/01/31 10:56:30;;;;;;;16.63;9.60;;;11.70;99.90;;;;;;5012274;28;20443;-68
2024/01/31 10:58:58;;;;;;;14.87;11.33;;;11.70;99.90;;;;;;5012437;28;20460;-68
2024/01/31 11:01:31;;;;;;;14.57;12.40;;;11.70;99.90;;;;;;5011911;28;20500;-68
2024/01/31 11:03:57;;;;;;;23.03;13.30;;;11.60;99.90;;;;;;5007797;28;20793;-67
2024/01/31 11:06:38;;;;;;;15.90;12.50;;;11.70;99.90;;;;;;5008539;28;20692;-68
2024/01/31 11:09:03;;;;;;;16.03;11.97;;;11.80;99.90;;;;;;5011545;28;20439;-68
2024/01/31 11:11:29;;;;;;;14.00;12.40;;;11.80;99.90;;;;;;5016621;28;20949;-68
2024/01/31 11:13:56;;;;;;;19.47;12.80;;;11.80;99.90;;;;;;5012591;28;20216;-68
2024/01/31 11:16:25;;;;;;;19.60;14.07;;;11.90;99.90;;;;;;5014202;28;20197;-68
2024/01/31 11:18:54;;;;;;;14.37;11.20;;;11.90;99.90;;;;;;5010832;28;20468;-68
2024/01/31 11:21:21;;;;;;;17.10;12.83;;;12.10;99.90;;;;;;5014890;28;20493;-67
2024/01/31 11:23:47;;;;;;;14.53;11.60;;;12.20;99.90;;;;;;5014949;28;20545;-67
2024/01/31 11:26:13;;;;;;;17.20;12.53;;;12.20;99.90;;;;;;5011571;28;20200;-68
2024/01/31 11:28:44;;;;;;;21.30;12.93;;;12.30;99.90;;;;;;5020677;28;20203;-67
2024/01/31 11:31:10;;;;;;;17.23;12.30;;;12.40;99.90;;;;;;5020360;28;20814;-67
2024/01/31 11:33:36;;;;;;;16.73;11.73;;;12.40;99.90;;;;;;5020874;28;21159;-67
2024/01/31 11:36:01;;;;;;;19.13;13.70;;;12.50;99.90;;;;;;5012041;28;20450;-67
2024/01/31 11:38:27;;;;;;;15.33;12.70;;;12.50;99.90;;;;;;5016458;28;20561;-67
2024/01/31 11:40:53;;;;;;;16.60;12.07;;;12.60;99.90;;;;;;5013891;28;20189;-67
2024/01/31 11:43:19;;;;;;;17.80;14.33;;;12.60;99.90;;;;;;5014031;28;20185;-67
2024/01/31 11:45:44;;;;;;;18.87;13.90;;;12.70;99.90;;;;;;5014418;28;20261;-68
2024/01/31 11:48:13;;;;;;;22.07;15.20;;;12.70;99.90;;;;;;5018917;28;20215;-68
2024/01/31 11:50:39;;;;;;;19.67;15.13;;;12.80;99.90;;;;;;5018205;28;20218;-68
2024/01/31 11:53:05;;;;;;;29.53;15.47;;;12.90;99.90;;;;;;5018697;28;20804;-68
2024/01/31 11:55:32;;;;;;;22.23;14.53;;;12.90;99.90;;;;;;5014992;28;20196;-68
2024/01/31 11:57:58;;;;;;;23.93;15.20;;;12.80;99.90;;;;;;5017227;28;20258;-67
2024/01/31 12:00:24;;;;;;;26.00;14.73;;;12.60;99.90;;;;;;5012672;28;20451;-68
2024/01/31 12:02:51;;;;;;;27.37;15.73;;;12.70;99.90;;;;;;5016146;28;20561;-68
2024/01/31 12:05:17;;;;;;;26.90;15.30;;;12.70;99.90;;;;;;5013921;28;21017;-67
2024/01/31 12:07:43;;;;;;;21.10;15.53;;;12.90;99.90;;;;;;5014415;28;20624;-67
2024/01/31 12:10:09;;;;;;;25.23;16.40;;;13.10;99.90;;;;;;5013359;28;20180;-67
2024/01/31 12:12:45;;;;;;;26.07;17.30;;;13.20;99.90;;;;;;5019163;28;20239;-68
2024/01/31 12:15:12;;;;;;;31.40;17.13;;;13.20;99.90;;;;;;5018521;28;20659;-68
2024/01/31 12:17:38;;;;;;;28.73;15.80;;;13.30;99.90;;;;;;5014961;28;20469;-68
2024/01/31 12:20:05;;;;;;;22.20;16.00;;;13.30;99.90;;;;;;5021422;28;20423;-69
2024/01/31 12:22:36;;;;;;;26.80;17.27;;;13.40;99.90;;;;;;5019374;28;20470;-69
2024/01/31 12:25:03;;;;;;;18.90;15.03;;;13.40;99.90;;;;;;5018241;28;20466;-68